Time;durP1;ratioP1;P1;durP2;ratioP2;P2;SDS_P1;SDS_P2;PMS_P1;PMS_P2;Temp;Humidity;BMP_temperature;BMP_pressure;BME280_temperature;BME280_humidity;BME280_pressure;Samples;Min_cycle;Max_cycle;Signal;HPM_P1;HPM_P2
2023/10/06 00:04:15;;;;;;;5.55;1.83;;;;;;;11.61;63.33;98760.28;10487275;28;20056;-72
2023/10/06 00:09:36;;;;;;;6.25;1.80;;;;;;;11.58;63.37;98753.03;10474339;28;20059;-71
2023/10/06 00:14:57;;;;;;;8.52;1.50;;;;;;;11.53;63.90;98760.38;10459371;28;20119;-72
2023/10/06 00:20:26;;;;;;;10.70;2.22;;;;;;;11.51;63.90;98759.47;10459527;28;20501;-73
2023/10/06 00:25:52;;;;;;;5.72;1.38;;;;;;;11.47;63.82;98769.00;10474576;28;20051;-73
2023/10/06 00:31:14;;;;;;;5.43;1.63;;;;;;;11.40;64.11;98766.31;10473359;28;20048;-72
2023/10/06 00:36:35;;;;;;;6.82;2.40;;;;;;;11.31;63.78;98753.72;10471981;28;20494;-73
2023/10/06 00:42:02;;;;;;;6.82;2.50;;;;;;;11.21;64.21;98757.78;10471338;28;20577;-72
2023/10/06 00:47:23;;;;;;;5.68;1.85;;;;;;;11.09;64.42;98761.03;10472982;28;20040;-72
2023/10/06 00:52:44;;;;;;;7.38;2.35;;;;;;;10.99;64.68;98760.22;10485294;28;20576;-72
2023/10/06 00:58:10;;;;;;;10.30;2.40;;;;;;;10.92;65.15;98765.88;10485298;28;20041;-72
2023/10/06 01:03:38;;;;;;;5.80;2.20;;;;;;;10.80;64.96;98765.59;10457666;28;20060;-73
2023/10/06 01:09:12;;;;;;;5.30;1.65;;;;;;;10.71;65.52;98775.38;10472700;28;20105;-73
2023/10/06 01:14:34;;;;;;;5.70;1.83;;;;;;;10.66;65.93;98770.03;10474013;28;20098;-73
2023/10/06 01:19:59;;;;;;;5.82;2.10;;;;;;;10.65;65.91;98774.13;10484294;28;20044;-72
2023/10/06 01:25:21;;;;;;;4.85;1.70;;;;;;;10.60;66.22;98773.78;10471582;28;20043;-72
2023/10/06 01:30:42;;;;;;;5.80;2.03;;;;;;;10.58;67.18;98770.81;10483986;28;20379;-73
2023/10/06 01:36:13;;;;;;;7.85;1.88;;;;;;;10.62;66.87;98778.81;10470342;28;20045;-73
2023/10/06 01:41:34;;;;;;;4.93;1.55;;;;;;;10.63;66.98;98782.34;10484113;28;20066;-73
2023/10/06 01:46:55;;;;;;;9.38;2.15;;;;;;;10.64;67.21;98795.72;10483837;28;20072;-73
2023/10/06 01:52:19;;;;;;;7.72;2.28;;;;;;;10.67;67.52;98796.63;10469441;28;20055;-73
2023/10/06 01:57:40;;;;;;;6.05;1.77;;;;;;;10.72;67.27;98795.69;10469610;28;20387;-73
2023/10/06 02:03:03;;;;;;;8.10;2.15;;;;;;;10.77;67.50;98786.31;10455209;28;20056;-72
2023/10/06 02:08:26;;;;;;;3.10;1.33;;;;;;;10.95;67.54;98792.66;10483249;28;20149;-72
2023/10/06 02:13:47;;;;;;;6.22;1.95;;;;;;;11.12;67.79;98789.91;10469493;28;20139;-73
2023/10/06 02:19:10;;;;;;;5.50;1.33;;;;;;;11.25;67.36;98781.19;10455219;28;20041;-73
2023/10/06 02:24:31;;;;;;;8.52;1.90;;;;;;;11.37;67.57;98775.84;10482427;28;20066;-72
2023/10/06 02:29:52;;;;;;;6.85;1.92;;;;;;;11.42;67.23;98764.41;10482691;28;20390;-73
2023/10/06 02:35:13;;;;;;;7.70;2.10;;;;;;;11.42;67.02;98774.84;10482327;28;20071;-72
2023/10/06 02:40:47;;;;;;;4.95;1.77;;;;;;;11.37;67.21;98759.06;10469147;28;20041;-73
2023/10/06 02:46:10;;;;;;;8.10;2.08;;;;;;;11.35;67.21;98767.28;10470234;28;20107;-72
2023/10/06 02:51:32;;;;;;;8.00;2.08;;;;;;;11.37;67.39;98770.97;10455070;28;20078;-72
2023/10/06 02:56:55;;;;;;;6.35;2.05;;;;;;;11.44;67.45;98767.38;10468830;28;20044;-72
2023/10/06 03:02:16;;;;;;;6.40;1.52;;;;;;;11.49;67.67;98773.28;10468844;28;20049;-73
2023/10/06 03:07:38;;;;;;;6.90;1.60;;;;;;;11.59;67.66;98765.72;10473045;28;20044;-73
2023/10/06 03:13:03;;;;;;;6.63;1.88;;;;;;;11.56;67.42;98775.97;10493335;28;20516;-74
2023/10/06 03:18:25;;;;;;;7.40;1.85;;;;;;;11.58;67.22;98767.00;10474997;28;20090;-72
2023/10/06 03:23:56;;;;;;;4.03;1.48;;;;;;;11.57;67.24;98766.28;10476131;28;20047;-72
2023/10/06 03:29:29;;;;;;;8.88;2.25;;;;;;;11.60;67.04;98775.59;10463676;28;20124;-71
2023/10/06 03:34:51;;;;;;;6.10;2.00;;;;;;;11.58;67.21;98778.19;10481990;28;20479;-73
2023/10/06 03:40:22;;;;;;;8.07;2.17;;;;;;;11.56;67.31;98772.44;10475227;28;20041;-73
2023/10/06 03:45:47;;;;;;;5.10;1.90;;;;;;;11.55;67.08;98785.69;10475695;28;20074;-73
2023/10/06 03:51:09;;;;;;;4.90;1.73;;;;;;;11.53;67.18;98777.16;10487965;28;20043;-73
2023/10/06 03:56:31;;;;;;;8.07;2.15;;;;;;;11.51;67.24;98782.56;10460584;28;20382;-72
2023/10/06 04:01:53;;;;;;;7.53;2.03;;;;;;;11.48;67.61;98786.50;10488310;28;20042;-72
2023/10/06 04:07:14;;;;;;;5.38;1.98;;;;;;;11.46;67.40;98787.09;10446688;28;20044;-71
2023/10/06 04:12:35;;;;;;;8.35;1.92;;;;;;;11.45;67.87;98780.03;10487650;28;20044;-71
2023/10/06 04:17:57;;;;;;;6.38;2.13;;;;;;;11.40;67.42;98791.47;10473591;28;20094;-72
2023/10/06 04:23:18;;;;;;;8.65;2.20;;;;;;;11.33;67.78;98784.63;10487015;28;20066;-73
2023/10/06 04:28:39;;;;;;;6.47;2.05;;;;;;;11.28;68.13;98779.28;10473537;28;20391;-73
2023/10/06 04:34:01;;;;;;;9.02;2.45;;;;;;;11.15;67.91;98778.31;10458512;28;20044;-73
2023/10/06 04:39:23;;;;;;;7.47;2.55;;;;;;;10.96;68.17;98783.72;10458809;28;20375;-73
2023/10/06 04:44:48;;;;;;;7.45;2.50;;;;;;;10.78;68.79;98782.19;10458634;28;20037;-73
2023/10/06 04:50:09;;;;;;;8.75;2.60;;;;;;;10.62;69.14;98787.19;10500770;28;20040;-72
2023/10/06 04:55:31;;;;;;;8.05;2.42;;;;;;;10.54;69.07;98778.88;10500515;28;20045;-71
2023/10/06 05:00:53;;;;;;;7.75;2.63;;;;;;;10.42;69.33;98780.66;10457729;28;20532;-73
2023/10/06 05:06:16;;;;;;;8.68;2.88;;;;;;;10.34;70.09;98782.00;10500268;28;20049;-72
2023/10/06 05:11:38;;;;;;;10.02;2.33;;;;;;;10.32;69.81;98786.09;10471417;28;20441;-73
2023/10/06 05:16:59;;;;;;;7.90;2.83;;;;;;;10.26;70.13;98782.78;10470616;28;20051;-73
2023/10/06 05:22:21;;;;;;;11.30;3.00;;;;;;;10.27;70.46;98778.69;10484418;28;20051;-72
2023/10/06 05:27:44;;;;;;;12.20;3.42;;;;;;;10.31;70.45;98786.66;10483887;28;20040;-73
2023/10/06 05:33:05;;;;;;;9.82;3.53;;;;;;;10.47;70.01;98804.78;10484508;28;20051;-72
2023/10/06 05:38:27;;;;;;;9.43;3.55;;;;;;;11.17;71.04;98803.63;10498891;28;20054;-71
2023/10/06 05:43:48;;;;;;;7.07;2.63;;;;;;;15.21;68.61;98817.38;10484013;28;20041;-72
2023/10/06 05:49:11;;;;;;;10.82;3.33;;;;;;;19.31;63.05;98825.06;10483804;28;20048;-73
2023/10/06 05:54:32;;;;;;;11.85;3.38;;;;;;;22.51;57.94;98829.28;10483181;28;20048;-73
2023/10/06 05:59:53;;;;;;;6.85;2.47;;;;;;;23.90;50.64;98834.13;10497992;28;20040;-72
2023/10/06 06:05:15;;;;;;;8.00;2.67;;;;;;;25.31;50.12;98839.72;10468759;28;20056;-72
2023/10/06 06:10:36;;;;;;;7.35;2.50;;;;;;;28.02;40.51;98839.75;10469126;28;20107;-72
2023/10/06 06:15:57;;;;;;;4.40;2.20;;;;;;;30.40;36.01;98848.16;10468570;28;20046;-73
2023/10/06 06:21:24;;;;;;;5.50;2.67;;;;;;;32.22;30.57;98845.69;10482498;28;20047;-73
2023/10/06 06:26:45;;;;;;;5.72;2.28;;;;;;;34.11;26.85;98856.34;10483119;28;20064;-74
2023/10/06 06:32:11;;;;;;;4.80;2.07;;;;;;;36.28;24.25;98864.31;10482018;28;20474;-74
2023/10/06 06:37:33;;;;;;;6.68;2.90;;;;;;;37.71;20.34;98859.16;10482522;28;20068;-75
2023/10/06 06:42:55;;;;;;;7.90;2.58;;;;;;;38.84;18.77;98854.06;10487303;28;20067;-75
2023/10/06 06:48:19;;;;;;;6.57;2.50;;;;;;;39.38;16.57;98845.19;10462835;28;20056;-74
2023/10/06 06:53:40;;;;;;;5.82;2.33;;;;;;;39.36;16.24;98851.06;10504761;28;20083;-75
2023/10/06 06:59:01;;;;;;;6.53;2.40;;;;;;;39.81;14.29;98844.53;10489802;28;20068;-77
2023/10/06 07:04:26;;;;;;;8.05;2.45;;;;;;;39.53;14.47;98854.19;10489613;28;20057;-76
2023/10/06 07:09:47;;;;;;;6.20;2.72;;;;;;;40.07;13.73;98857.56;10475536;28;20051;-77
2023/10/06 07:15:14;;;;;;;4.70;1.98;;;;;;;40.05;13.10;98854.69;10489331;28;20563;-76
2023/10/06 07:20:35;;;;;;;5.00;2.17;;;;;;;40.80;13.36;98854.22;10475526;28;20079;-77
2023/10/06 07:25:56;;;;;;;5.93;2.60;;;;;;;42.54;11.36;98842.81;10489117;28;20375;-77
2023/10/06 07:31:17;;;;;;;7.13;2.50;;;;;;;41.60;11.77;98855.56;10474555;28;20041;-76
2023/10/06 07:36:38;;;;;;;5.05;2.10;;;;;;;40.64;13.21;98849.00;10503134;28;20116;-77
2023/10/06 07:41:59;;;;;;;10.30;2.47;;;;;;;42.94;11.88;98848.34;10503216;28;20064;-77
2023/10/06 07:47:24;;;;;;;6.53;2.08;;;;;;;43.84;10.79;98847.72;10460457;28;20058;-76
2023/10/06 07:52:49;;;;;;;5.13;2.13;;;;;;;44.79;10.75;98824.41;10488256;28;20037;-77
2023/10/06 07:58:10;;;;;;;6.50;1.92;;;;;;;46.07;9.69;98822.28;10487827;28;20048;-77
2023/10/06 08:03:32;;;;;;;4.47;2.15;;;;;;;46.63;9.14;98832.88;10486906;28;20056;-78
2023/10/06 08:08:53;;;;;;;7.15;2.00;;;;;;;46.31;8.72;98823.03;10473103;28;20513;-77
2023/10/06 08:14:14;;;;;;;4.72;1.95;;;;;;;46.67;8.95;98826.69;10486966;28;20044;-77
2023/10/06 08:19:34;;;;;;;5.25;1.70;;;;;;;47.37;8.23;98822.28;10486759;28;20056;-78
2023/10/06 08:24:55;;;;;;;4.85;1.90;;;;;;;47.14;8.22;98826.69;10486907;28;20388;-77
2023/10/06 08:30:17;;;;;;;3.83;1.80;;;;;;;47.06;8.11;98815.41;10486341;28;20068;-78
2023/10/06 08:35:40;;;;;;;3.95;1.70;;;;;;;46.06;8.68;98835.63;10472086;28;20124;-78
2023/10/06 08:41:01;;;;;;;5.10;1.98;;;;;;;43.98;10.16;98808.75;10472005;28;20457;-77
2023/10/06 08:46:23;;;;;;;7.10;2.08;;;;;;;45.41;9.43;98813.59;10458051;28;20064;-76
2023/10/06 08:51:48;;;;;;;3.60;1.42;;;;;;;46.48;8.63;98823.47;10471362;28;20098;-78
2023/10/06 08:57:12;;;;;;;4.47;1.75;;;;;;;47.33;8.17;98815.13;10471558;28;20123;-78
2023/10/06 09:02:33;;;;;;;3.95;1.77;;;;;;;47.97;7.77;98822.75;10484939;28;20151;-78
2023/10/06 09:08:04;;;;;;;4.18;1.60;;;;;;;48.48;7.65;98828.81;10484617;28;20044;-77
2023/10/06 09:13:25;;;;;;;5.35;1.60;;;;;;;48.17;7.55;98830.94;10499431;28;20076;-77
2023/10/06 09:19:00;;;;;;;4.88;1.55;;;;;;;48.15;7.68;98818.53;10484069;28;20174;-79
2023/10/06 09:24:23;;;;;;;3.13;1.50;;;;;;;48.40;7.09;98814.59;10456936;28;20075;-77
2023/10/06 09:29:45;;;;;;;2.60;1.33;;;;;;;47.31;7.78;98776.13;10483755;28;20041;-78
2023/10/06 09:35:22;;;;;;;3.08;1.50;;;;;;;48.28;7.22;98765.84;10456201;28;20068;-77
2023/10/06 09:40:44;;;;;;;4.22;1.65;;;;;;;48.01;6.85;98769.94;10483684;28;20075;-77
2023/10/06 09:46:06;;;;;;;2.13;1.60;;;;;;;48.07;6.90;98775.44;10469668;28;20068;-77
2023/10/06 09:51:27;;;;;;;2.70;1.45;;;;;;;47.66;7.12;98786.34;10483300;28;20071;-78
2023/10/06 09:56:48;;;;;;;3.20;1.70;;;;;;;45.90;7.76;98802.59;10468961;28;20481;-78
2023/10/06 10:02:11;;;;;;;2.70;1.63;;;;;;;46.10;7.76;98785.22;10482851;28;20079;-78
2023/10/06 10:07:32;;;;;;;5.00;1.70;;;;;;;45.42;8.04;98767.84;10469153;28;20067;-78
2023/10/06 10:13:19;;;;;;;3.70;1.98;;;;;;;44.69;8.14;98766.78;10468690;28;20105;-78
2023/10/06 10:18:44;;;;;;;4.30;2.20;;;;;;;45.85;8.13;98774.19;10497446;28;20483;-77
2023/10/06 10:24:05;;;;;;;3.22;2.13;;;;;;;44.23;8.05;98752.34;10468789;28;20067;-77
2023/10/06 10:29:47;;;;;;;3.55;1.90;;;;;;;43.60;9.04;98737.94;10485205;28;20048;-76
2023/10/06 10:35:08;;;;;;;3.83;2.20;;;;;;;45.28;8.03;98734.00;10468569;28;20099;-76
2023/10/06 10:40:29;;;;;;;4.03;2.17;;;;;;;43.36;8.69;98720.03;10497024;28;20044;-77
2023/10/06 10:45:52;;;;;;;4.47;2.30;;;;;;;43.00;9.27;98727.69;10482311;28;20064;-76
2023/10/06 10:51:13;;;;;;;5.88;2.17;;;;;;;44.95;8.83;98723.38;10454289;28;20466;-77
2023/10/06 10:56:37;;;;;;;3.67;2.00;;;;;;;44.73;8.00;98716.50;10467806;28;20045;-76
2023/10/06 11:01:58;;;;;;;3.85;2.30;;;;;;;44.94;8.25;98663.06;10467653;28;20072;-78
2023/10/06 11:07:20;;;;;;;3.28;2.03;;;;;;;43.12;8.87;98656.59;10454483;28;20072;-77
2023/10/06 11:12:41;;;;;;;4.53;2.22;;;;;;;43.26;8.99;98664.72;10467547;28;20049;-77
2023/10/06 11:18:04;;;;;;;3.88;2.10;;;;;;;43.28;8.80;98675.66;10466813;28;20566;-77
2023/10/06 11:23:40;;;;;;;4.47;2.67;;;;;;;43.64;8.76;98676.72;10481622;28;20068;-77
2023/10/06 11:29:01;;;;;;;5.80;2.42;;;;;;;43.18;8.68;98665.13;10472336;28;20045;-76
2023/10/06 11:34:24;;;;;;;3.70;2.28;;;;;;;41.94;9.29;98668.03;10474677;28;20119;-76
2023/10/06 11:39:45;;;;;;;4.80;2.75;;;;;;;38.09;10.79;98655.72;10488435;28;20405;-77
2023/10/06 11:45:06;;;;;;;5.57;2.45;;;;;;;34.59;13.25;98645.72;10460072;28;20124;-74
2023/10/06 11:50:34;;;;;;;7.53;3.17;;;;;;;31.47;16.23;98645.22;10487767;28;20040;-74
2023/10/06 11:56:12;;;;;;;9.80;3.10;;;;;;;28.71;19.54;98633.94;10474072;28;20135;-72
2023/10/06 12:01:33;;;;;;;7.10;2.70;;;;;;;26.96;21.09;98637.31;10487316;28;20170;-74
2023/10/06 12:06:55;;;;;;;6.18;3.10;;;;;;;27.20;21.65;98619.81;10459660;28;20057;-74
2023/10/06 12:12:19;;;;;;;5.73;2.80;;;;;;;26.78;21.90;98606.22;10431686;28;20045;-73
2023/10/06 12:17:40;;;;;;;8.52;2.80;;;;;;;26.01;22.27;98589.78;10432302;28;20068;-74
2023/10/06 12:23:01;;;;;;;7.87;2.90;;;;;;;24.71;23.85;98579.72;10431153;28;20505;-73
2023/10/06 12:28:22;;;;;;;6.10;2.80;;;;;;;24.14;25.12;98583.19;10426604;28;20069;-73
2023/10/06 12:33:43;;;;;;;6.95;3.20;;;;;;;24.28;24.96;98572.16;10430723;28;20067;-73
2023/10/06 12:39:05;;;;;;;6.90;2.78;;;;;;;24.45;24.88;98567.63;10429458;28;20091;-72
2023/10/06 12:44:27;;;;;;;6.63;2.40;;;;;;;24.53;25.11;98577.13;10430358;28;20491;-72
2023/10/06 12:49:48;;;;;;;8.07;2.65;;;;;;;24.26;25.75;98564.28;10444371;28;20117;-73
2023/10/06 12:55:12;;;;;;;5.90;2.42;;;;;;;24.67;25.73;98579.59;10459152;28;20050;-72
2023/10/06 13:00:33;;;;;;;13.95;2.92;;;;;;;24.87;25.40;98570.06;10430129;28;20072;-72
2023/10/06 13:05:54;;;;;;;7.00;2.85;;;;;;;24.77;26.44;98559.88;10478431;28;20072;-72
2023/10/06 13:11:18;;;;;;;4.75;2.28;;;;;;;24.13;27.11;98547.53;10485045;28;20453;-72
2023/10/06 13:16:38;;;;;;;6.88;2.22;;;;;;;23.70;27.78;98549.19;10470506;28;20071;-73
2023/10/06 13:21:59;;;;;;;6.05;1.92;;;;;;;23.13;28.45;98559.59;10483959;28;20494;-72
2023/10/06 13:27:20;;;;;;;5.75;2.10;;;;;;;22.85;28.88;98533.09;10483295;28;20075;-73
2023/10/06 13:32:42;;;;;;;5.03;2.20;;;;;;;22.89;29.16;98538.19;10469685;28;20068;-72
2023/10/06 13:38:04;;;;;;;5.50;2.15;;;;;;;22.73;29.75;98535.53;10469739;28;20538;-72
2023/10/06 13:43:26;;;;;;;5.30;1.98;;;;;;;22.63;29.88;98521.69;10483268;28;20115;-72
2023/10/06 13:48:47;;;;;;;6.60;2.00;;;;;;;22.48;30.19;98519.75;10482563;28;20464;-73
2023/10/06 13:54:07;;;;;;;7.90;2.10;;;;;;;22.60;30.20;98525.88;10468953;28;20068;-73
2023/10/06 13:59:29;;;;;;;7.97;2.65;;;;;;;22.04;30.78;98524.66;10482926;28;20075;-73
2023/10/06 14:04:50;;;;;;;7.47;2.50;;;;;;;21.53;31.44;98522.88;10441950;28;20160;-72
2023/10/06 14:10:16;;;;;;;7.47;2.20;;;;;;;21.23;32.29;98520.31;10427219;28;20534;-73
2023/10/06 14:15:49;;;;;;;7.97;2.42;;;;;;;21.07;32.78;98514.03;10455763;28;20509;-72
2023/10/06 14:21:12;;;;;;;6.35;2.15;;;;;;;20.73;33.39;98485.75;10429399;28;20448;-73
2023/10/06 14:26:35;;;;;;;6.20;2.40;;;;;;;20.41;34.53;98473.09;10413944;28;20052;-73
2023/10/06 14:32:09;;;;;;;9.13;2.20;;;;;;;20.38;34.62;98465.91;10441058;28;20115;-74
2023/10/06 14:37:40;;;;;;;11.25;2.28;;;;;;;20.23;35.02;98451.13;10442670;28;20121;-74
2023/10/06 14:48:43;;;;;;;9.75;2.28;;;;;;;19.64;36.85;98440.19;10442769;28;20121;-72
2023/10/06 14:54:04;;;;;;;10.65;2.15;;;;;;;19.30;37.07;98430.91;10427246;28;20056;-72
2023/10/06 14:59:30;;;;;;;7.97;1.77;;;;;;;19.15;37.68;98421.03;10426360;28;20036;-73
2023/10/06 15:04:51;;;;;;;8.90;2.30;;;;;;;18.75;38.51;98430.53;10434405;28;20133;-73
2023/10/06 15:10:18;;;;;;;7.63;1.90;;;;;;;18.73;38.61;98428.34;10448030;28;20462;-73
2023/10/06 15:15:46;;;;;;;8.30;2.47;;;;;;;18.75;38.75;98433.34;10435503;28;20072;-73
2023/10/06 15:21:07;;;;;;;6.85;2.10;;;;;;;18.72;38.99;98440.25;10435623;28;20466;-73
2023/10/06 15:26:28;;;;;;;4.38;1.85;;;;;;;18.75;38.96;98419.22;10462114;28;20175;-73
2023/10/06 15:31:49;;;;;;;6.85;1.90;;;;;;;18.57;39.21;98419.78;10462014;28;20083;-72
2023/10/06 15:37:10;;;;;;;5.22;1.98;;;;;;;18.47;39.17;98419.31;10433127;28;20487;-73
2023/10/06 15:42:36;;;;;;;5.63;2.08;;;;;;;18.36;39.63;98416.66;10461432;28;20518;-71
2023/10/06 15:47:57;;;;;;;5.88;2.03;;;;;;;18.16;39.79;98411.47;10446633;28;20167;-73
2023/10/06 15:53:18;;;;;;;7.78;2.13;;;;;;;18.02;39.89;98405.84;10446206;28;20060;-73
2023/10/06 15:58:42;;;;;;;5.95;1.63;;;;;;;17.90;40.12;98415.84;10461275;28;20073;-73
2023/10/06 16:04:03;;;;;;;5.28;1.90;;;;;;;17.74;40.47;98416.47;10418720;28;20053;-72
2023/10/06 16:09:24;;;;;;;7.90;2.15;;;;;;;17.58;40.74;98403.63;10445501;28;20152;-73
2023/10/06 16:14:45;;;;;;;5.78;2.47;;;;;;;17.45;41.18;98407.91;10445136;28;20131;-74
2023/10/06 16:20:09;;;;;;;7.05;2.08;;;;;;;17.31;41.44;98421.31;10445213;28;20560;-74
2023/10/06 16:25:29;;;;;;;6.88;1.92;;;;;;;17.13;41.98;98421.09;10431690;28;20138;-74
2023/10/06 16:30:54;;;;;;;6.63;2.47;;;;;;;16.95;41.84;98426.50;10430586;28;20064;-74
2023/10/06 16:36:14;;;;;;;10.98;2.60;;;;;;;16.78;42.19;98422.06;10430887;28;20077;-73
2023/10/06 16:41:36;;;;;;;7.13;2.75;;;;;;;16.61;42.68;98416.88;10459628;28;20065;-73
2023/10/06 16:46:57;;;;;;;9.73;3.03;;;;;;;16.50;42.99;98426.13;10443678;28;20044;-74
2023/10/06 16:52:18;;;;;;;11.55;2.95;;;;;;;16.40;43.39;98411.47;10444600;28;20544;-74
2023/10/06 16:57:39;;;;;;;9.23;3.22;;;;;;;16.33;43.92;98426.59;10443741;28;20137;-74
2023/10/06 17:03:00;;;;;;;9.48;2.85;;;;;;;16.21;43.96;98410.47;10458554;28;20079;-75
2023/10/06 17:08:21;;;;;;;5.40;2.25;;;;;;;16.05;44.12;98398.31;10429308;28;20482;-73
2023/10/06 17:13:42;;;;;;;10.02;3.13;;;;;;;15.91;44.60;98397.47;10458412;28;20554;-73
2023/10/06 17:19:03;;;;;;;8.30;3.25;;;;;;;15.80;44.87;98392.63;10443323;28;20495;-72
2023/10/06 17:24:24;;;;;;;7.75;3.45;;;;;;;15.66;44.89;98398.91;10414853;28;20124;-74
2023/10/06 17:29:45;;;;;;;11.60;3.67;;;;;;;15.55;45.48;98399.66;10457833;28;20116;-74
2023/10/06 17:35:07;;;;;;;6.60;2.70;;;;;;;15.50;46.02;98397.19;10442507;28;20071;-74
2023/10/06 17:40:29;;;;;;;9.75;3.25;;;;;;;15.45;46.05;98402.59;10442475;28;20041;-74
2023/10/06 17:45:51;;;;;;;10.48;3.15;;;;;;;15.37;46.27;98384.50;10456963;28;20427;-74
2023/10/06 17:51:14;;;;;;;7.18;2.92;;;;;;;15.32;46.39;98377.16;10441775;28;20069;-71
2023/10/06 17:56:38;;;;;;;10.63;3.28;;;;;;;15.25;46.76;98384.53;10456399;28;20096;-72
2023/10/06 18:01:58;;;;;;;8.32;3.03;;;;;;;15.21;47.21;98386.34;10428127;28;20102;-73
2023/10/06 18:07:19;;;;;;;10.40;3.03;;;;;;;15.11;46.97;98381.59;10441429;28;20045;-73
2023/10/06 18:12:40;;;;;;;7.65;2.58;;;;;;;15.04;47.54;98388.19;10427378;28;20051;-73
2023/10/06 18:18:01;;;;;;;8.20;2.67;;;;;;;14.95;47.40;98391.84;10441526;28;20040;-73
2023/10/06 18:23:22;;;;;;;6.82;2.47;;;;;;;14.91;48.05;98397.25;10427147;28;20179;-74
2023/10/06 18:28:43;;;;;;;5.50;2.50;;;;;;;14.87;47.24;98380.13;10440947;28;20116;-74
2023/10/06 18:34:04;;;;;;;7.80;2.42;;;;;;;14.78;47.56;98372.56;10427307;28;20057;-73
2023/10/06 18:39:27;;;;;;;7.28;2.10;;;;;;;14.71;47.78;98370.72;10448954;28;20045;-74
2023/10/06 18:44:50;;;;;;;8.52;2.60;;;;;;;14.72;48.10;98375.72;10449494;28;20073;-73
2023/10/06 18:50:30;;;;;;;6.63;1.80;;;;;;;14.72;48.15;98374.97;10434740;28;20394;-73
2023/10/06 18:55:52;;;;;;;5.68;2.00;;;;;;;14.73;47.95;98370.84;10463586;28;20076;-74
2023/10/06 19:01:13;;;;;;;6.78;2.67;;;;;;;14.66;47.72;98377.41;10423446;28;20045;-74
2023/10/06 19:06:41;;;;;;;8.70;2.20;;;;;;;14.58;48.19;98369.25;10434014;28;20053;-74
2023/10/06 19:12:03;;;;;;;6.95;2.67;;;;;;;14.58;48.38;98369.97;10436358;28;20116;-74
2023/10/06 19:17:25;;;;;;;6.60;2.72;;;;;;;14.56;48.64;98369.09;10434664;28;20392;-73
2023/10/06 19:22:47;;;;;;;7.20;2.50;;;;;;;14.55;48.56;98359.94;10462999;28;20033;-74
2023/10/06 19:28:11;;;;;;;6.85;3.00;;;;;;;14.54;48.71;98361.28;10461359;28;20115;-73
2023/10/06 19:33:32;;;;;;;11.50;3.38;;;;;;;14.49;48.73;98353.97;10447172;28;20099;-73
2023/10/06 19:38:53;;;;;;;9.55;3.78;;;;;;;14.42;48.91;98360.50;10460961;28;20049;-72
2023/10/06 19:44:16;;;;;;;10.57;3.67;;;;;;;14.36;49.03;98359.38;10460685;28;20471;-72
2023/10/06 19:49:38;;;;;;;8.98;3.85;;;;;;;14.30;49.26;98359.75;10460587;28;20124;-73
2023/10/06 19:55:00;;;;;;;8.52;3.42;;;;;;;14.23;49.51;98350.19;10446513;28;20538;-73
2023/10/06 20:00:27;;;;;;;9.52;3.42;;;;;;;14.18;49.76;98344.94;10460263;28;20057;-73
2023/10/06 20:05:48;;;;;;;8.68;3.38;;;;;;;14.13;49.96;98340.41;10447058;28;20056;-73
2023/10/06 20:11:12;;;;;;;8.50;3.65;;;;;;;14.04;50.23;98337.09;10446426;28;20124;-73
2023/10/06 20:16:33;;;;;;;9.77;3.70;;;;;;;14.01;51.05;98334.78;10446043;28;20180;-74
2023/10/06 20:21:54;;;;;;;11.90;4.20;;;;;;;13.98;50.93;98331.09;10445619;28;20123;-72
2023/10/06 20:27:17;;;;;;;6.65;3.40;;;;;;;13.96;50.95;98316.19;10431339;28;20539;-73
2023/10/06 20:32:38;;;;;;;10.03;4.17;;;;;;;13.90;51.47;98313.75;10431894;28;20175;-73
2023/10/06 20:37:59;;;;;;;8.00;3.80;;;;;;;13.95;51.59;98326.69;10444743;28;20048;-74
2023/10/06 20:43:19;;;;;;;8.88;3.60;;;;;;;13.97;51.81;98324.00;10458658;28;20045;-75
2023/10/06 20:48:41;;;;;;;13.55;3.55;;;;;;;14.01;52.00;98326.34;10430775;28;20395;-74
2023/10/06 20:54:02;;;;;;;11.10;3.97;;;;;;;14.04;52.17;98317.44;10430153;28;20052;-74
2023/10/06 20:59:24;;;;;;;10.30;3.88;;;;;;;14.16;52.11;98323.06;10443301;28;20064;-73
2023/10/06 21:04:44;;;;;;;10.63;4.07;;;;;;;14.24;52.32;98322.84;10444325;28;20057;-74
2023/10/06 21:10:07;;;;;;;9.43;4.00;;;;;;;14.31;52.10;98325.44;10444032;28;20045;-74
2023/10/06 21:15:32;;;;;;;12.40;4.43;;;;;;;14.32;52.06;98335.34;10429861;28;20040;-73
2023/10/06 21:20:52;;;;;;;9.38;4.07;;;;;;;14.26;52.47;98334.22;10430329;28;20552;-74
2023/10/06 21:26:13;;;;;;;10.63;4.82;;;;;;;14.21;52.51;98338.13;10401657;28;20084;-74
2023/10/06 21:31:35;;;;;;;10.90;5.00;;;;;;;14.16;52.92;98336.38;10429570;28;20468;-73
2023/10/06 21:36:56;;;;;;;10.85;4.00;;;;;;;14.18;53.03;98336.50;10443109;28;20072;-75
2023/10/06 21:42:18;;;;;;;11.52;4.35;;;;;;;14.22;52.85;98325.53;10442441;28;20044;-72
2023/10/06 21:47:39;;;;;;;14.38;4.90;;;;;;;14.26;53.02;98325.78;10415141;28;20116;-74
2023/10/06 21:53:00;;;;;;;12.27;4.82;;;;;;;14.34;53.14;98315.06;10429553;28;20084;-74
2023/10/06 21:58:21;;;;;;;11.95;5.03;;;;;;;14.40;53.46;98315.44;10432134;28;20060;-75
2023/10/06 22:03:41;;;;;;;9.85;4.22;;;;;;;14.51;53.34;98311.94;10446482;28;20503;-73
2023/10/06 22:09:02;;;;;;;13.57;4.55;;;;;;;14.55;53.18;98303.75;10451596;28;20063;-75
2023/10/06 22:14:23;;;;;;;9.90;4.35;;;;;;;14.63;53.30;98299.97;10432232;28;20067;-74
2023/10/06 22:19:46;;;;;;;10.65;4.78;;;;;;;14.69;53.48;98308.78;10427791;28;20140;-74
2023/10/06 22:25:10;;;;;;;10.57;4.53;;;;;;;14.62;53.34;98304.13;10427802;28;20048;-74
2023/10/06 22:30:33;;;;;;;12.60;4.50;;;;;;;14.66;53.34;98298.75;10441396;28;20065;-73
2023/10/06 22:35:53;;;;;;;11.68;4.78;;;;;;;14.66;53.29;98298.75;10421419;28;20112;-73
2023/10/06 22:41:17;;;;;;;8.93;4.10;;;;;;;14.68;53.45;98296.06;10407790;28;20060;-74
2023/10/06 22:46:38;;;;;;;10.38;4.80;;;;;;;14.64;53.51;98290.19;10428748;28;20076;-74
2023/10/06 22:51:59;;;;;;;10.18;4.63;;;;;;;14.56;53.57;98285.53;10426834;28;20391;-75
2023/10/06 22:57:20;;;;;;;13.40;5.20;;;;;;;14.46;53.65;98278.59;10426698;28;20102;-74
2023/10/06 23:02:41;;;;;;;11.00;4.90;;;;;;;14.35;53.94;98282.09;10440839;28;20095;-74
2023/10/06 23:08:02;;;;;;;13.02;4.53;;;;;;;14.26;53.99;98275.25;10440138;28;20394;-73
2023/10/06 23:13:26;;;;;;;13.30;5.03;;;;;;;14.18;54.55;98280.34;10426535;28;20052;-72
2023/10/06 23:18:46;;;;;;;;;;;;;;;14.17;54.96;98292.94;10427649;28;20103;-73
2023/10/06 23:24:14;;;;;;;12.75;4.70;;;;;;;14.13;54.57;98275.84;10444129;28;19960;-74
2023/10/06 23:29:35;;;;;;;11.77;4.72;;;;;;;14.05;55.12;98278.88;10435115;28;20071;-74
2023/10/06 23:34:56;;;;;;;14.73;5.20;;;;;;;14.02;55.34;98283.63;10447273;28;20049;-74
2023/10/06 23:45:38;;;;;;;11.23;4.50;;;;;;;13.95;55.76;98276.16;10462342;28;20107;-73
2023/10/06 23:51:08;;;;;;;12.52;4.32;;;;;;;13.96;55.96;98294.47;10432963;28;20442;-73
2023/10/06 23:56:31;;;;;;;13.50;4.93;;;;;;;13.95;55.99;98273.38;10461335;28;20068;-73
